Time;durP1;ratioP1;P1;durP2;ratioP2;P2;SDS_P1;SDS_P2;PMS_P1;PMS_P2;Temp;Humidity;BMP_temperature;BMP_pressure;BME280_temperature;BME280_humidity;BME280_pressure;Samples;Min_cycle;Max_cycle;Signal;HPM_P1;HPM_P2
2022/10/16 00:01:17;;;;;;;3.97;2.30;;;;;;;;;;5025548;28;20061;-83
2022/10/16 00:03:44;;;;;;;7.85;2.65;;;;;;;;;;5030363;28;20043;-83
2022/10/16 00:06:10;;;;;;;5.88;2.30;;;;;;;;;;5028950;28;20388;-84
2022/10/16 00:08:37;;;;;;;7.25;2.40;;;;;;;;;;5026954;28;20044;-83
2022/10/16 00:11:05;;;;;;;6.38;2.00;;;;;;;;;;5024471;28;20393;-84
2022/10/16 00:13:32;;;;;;;5.18;2.08;;;;;;;;;;5029916;28;20124;-84
2022/10/16 00:15:59;;;;;;;9.05;2.30;;;;;;;;;;5029195;28;20052;-83
2022/10/16 00:18:31;;;;;;;5.22;2.40;;;;;;;;;;5026919;28;20042;-83
2022/10/16 00:21:02;;;;;;;6.55;2.53;;;;;;;;;;5025681;28;20045;-83
2022/10/16 00:23:28;;;;;;;4.13;2.55;;;;;;;;;;5021322;28;20049;-83
2022/10/16 00:26:02;;;;;;;5.88;2.30;;;;;;;;;;5028942;28;20084;-83
2022/10/16 00:28:29;;;;;;;4.47;1.98;;;;;;;;;;5027913;28;20048;-83
2022/10/16 00:30:55;;;;;;;4.28;2.05;;;;;;;;;;5027456;28;20046;-83
2022/10/16 00:33:21;;;;;;;6.40;2.42;;;;;;;;;;5028398;28;20040;-83
2022/10/16 00:35:47;;;;;;;7.45;2.25;;;;;;;;;;5020950;28;20493;-83
2022/10/16 00:38:13;;;;;;;5.15;2.40;;;;;;;;;;5026740;28;20046;-82
2022/10/16 00:40:39;;;;;;;7.63;2.40;;;;;;;;;;5025864;28;20103;-83
2022/10/16 00:43:12;;;;;;;6.55;2.10;;;;;;;;;;5026451;28;20051;-83
2022/10/16 00:45:38;;;;;;;8.70;2.83;;;;;;;;;;5028047;28;20037;-82
2022/10/16 00:48:04;;;;;;;7.43;2.30;;;;;;;;;;5024609;28;20112;-82
2022/10/16 00:50:34;;;;;;;7.18;2.38;;;;;;;;;;5022589;28;20045;-83
2022/10/16 00:53:01;;;;;;;6.03;2.38;;;;;;;;;;5027481;28;20053;-83
2022/10/16 00:55:30;;;;;;;5.88;2.10;;;;;;;;;;5027725;28;20048;-83
2022/10/16 00:57:56;;;;;;;3.47;2.03;;;;;;;;;;5025176;28;20468;-83
2022/10/16 01:00:24;;;;;;;6.68;2.20;;;;;;;;;;5026942;28;20057;-83
2022/10/16 01:02:57;;;;;;;5.25;2.10;;;;;;;;;;5028919;28;20057;-82
2022/10/16 01:05:24;;;;;;;4.45;1.80;;;;;;;;;;5023574;28;20042;-83
2022/10/16 01:07:50;;;;;;;4.85;2.28;;;;;;;;;;5024290;28;20456;-82
2022/10/16 01:10:22;;;;;;;7.78;2.25;;;;;;;;;;5020532;28;20049;-83
2022/10/16 01:12:51;;;;;;;5.18;2.08;;;;;;;;;;5024992;28;20053;-83
2022/10/16 01:15:29;;;;;;;2.83;1.80;;;;;;;;;;5027541;28;20536;-84
2022/10/16 01:18:06;;;;;;;4.70;2.00;;;;;;;;;;5019523;28;20104;-84
2022/10/16 01:20:37;;;;;;;4.70;1.88;;;;;;;;;;5025079;28;20046;-84
2022/10/16 01:23:06;;;;;;;9.88;2.78;;;;;;;;;;5025954;28;20456;-83
2022/10/16 01:26:00;;;;;;;5.75;2.30;;;;;;;;;;5027686;28;20511;-83
2022/10/16 01:28:26;;;;;;;;;;;;;;;;;;5024768;28;20116;-84
2022/10/16 01:30:54;;;;;;;4.00;2.00;;;;;;;;;;5022459;28;20070;-82
2022/10/16 01:33:22;;;;;;;5.38;2.20;;;;;;;;;;5017596;28;20045;-82
2022/10/16 01:35:56;;;;;;;6.07;2.05;;;;;;;;;;5023589;28;20179;-82
2022/10/16 01:38:25;;;;;;;4.63;2.22;;;;;;;;;;5018632;28;20552;-83
2022/10/16 01:40:52;;;;;;;2.78;2.30;;;;;;;;;;5024813;28;20076;-82
2022/10/16 01:43:21;;;;;;;4.15;1.80;;;;;;;;;;5022399;28;20076;-84
2022/10/16 01:45:47;;;;;;;7.72;2.72;;;;;;;;;;5020821;28;20052;-83
2022/10/16 01:48:15;;;;;;;8.60;2.53;;;;;;;;;;5026343;28;20049;-82
2022/10/16 01:50:43;;;;;;;13.73;2.90;;;;;;;;;;5030013;28;20041;-83
2022/10/16 01:53:11;;;;;;;11.63;2.78;;;;;;;;;;5025367;28;20041;-81
2022/10/16 01:55:41;;;;;;;11.40;2.90;;;;;;;;;;5021604;28;20489;-82
2022/10/16 01:58:08;;;;;;;15.15;3.13;;;;;;;;;;5018772;28;20068;-82
2022/10/16 02:00:34;;;;;;;9.80;2.55;;;;;;;;;;5026520;28;20042;-81
2022/10/16 02:03:02;;;;;;;9.95;2.40;;;;;;;;;;5025250;28;20072;-82
2022/10/16 02:05:33;;;;;;;9.75;2.40;;;;;;;;;;5024296;28;20480;-83
2022/10/16 02:07:59;;;;;;;9.02;2.67;;;;;;;;;;5027438;28;20037;-82
2022/10/16 02:10:25;;;;;;;8.10;2.50;;;;;;;;;;5030879;28;20056;-82
2022/10/16 02:12:56;;;;;;;4.57;2.05;;;;;;;;;;5030032;28;21181;-81
2022/10/16 02:15:22;;;;;;;8.25;2.60;;;;;;;;;;5030664;28;20136;-81
2022/10/16 02:17:48;;;;;;;8.48;2.60;;;;;;;;;;5030590;28;20052;-81
2022/10/16 02:20:14;;;;;;;8.90;2.60;;;;;;;;;;5016205;28;20041;-82
2022/10/16 02:22:43;;;;;;;8.07;2.80;;;;;;;;;;5030221;28;20037;-82
2022/10/16 02:25:11;;;;;;;9.23;3.00;;;;;;;;;;5026556;28;20555;-82
2022/10/16 02:27:40;;;;;;;5.40;2.30;;;;;;;;;;5027882;28;20053;-81
2022/10/16 02:30:15;;;;;;;9.20;3.20;;;;;;;;;;5031825;28;20140;-80
2022/10/16 02:32:42;;;;;;;6.95;2.50;;;;;;;;;;5028521;28;20574;-81
2022/10/16 02:35:09;;;;;;;3.50;2.72;;;;;;;;;;5029754;28;20045;-81
2022/10/16 02:37:36;;;;;;;6.82;2.80;;;;;;;;;;5029472;28;20050;-81
2022/10/16 02:40:03;;;;;;;4.50;2.60;;;;;;;;;;5030039;28;20053;-81
2022/10/16 02:42:33;;;;;;;3.65;2.40;;;;;;;;;;5024037;28;20453;-81
2022/10/16 02:44:59;;;;;;;3.30;2.50;;;;;;;;;;5030784;28;20038;-81
2022/10/16 02:47:25;;;;;;;4.90;2.50;;;;;;;;;;5029849;28;20054;-82
2022/10/16 02:49:51;;;;;;;5.53;2.78;;;;;;;;;;5029519;28;20042;-81
2022/10/16 02:52:17;;;;;;;4.50;2.67;;;;;;;;;;5027491;28;20045;-81
2022/10/16 02:54:43;;;;;;;4.68;2.50;;;;;;;;;;5026945;28;20033;-81
2022/10/16 02:57:09;;;;;;;3.92;2.58;;;;;;;;;;5027989;28;20049;-81
2022/10/16 02:59:35;;;;;;;4.20;2.60;;;;;;;;;;5025423;28;20429;-81
2022/10/16 03:02:01;;;;;;;4.55;2.63;;;;;;;;;;5027609;28;20064;-81
2022/10/16 03:04:27;;;;;;;7.10;3.17;;;;;;;;;;5023912;28;20104;-81
2022/10/16 03:06:53;;;;;;;4.72;2.40;;;;;;;;;;5030686;28;20477;-82
2022/10/16 03:09:19;;;;;;;6.47;2.40;;;;;;;;;;5027490;28;20120;-81
2022/10/16 03:11:45;;;;;;;3.97;2.40;;;;;;;;;;5029524;28;20053;-81
2022/10/16 03:14:11;;;;;;;4.20;2.53;;;;;;;;;;5024627;28;20120;-81
2022/10/16 03:16:37;;;;;;;3.80;2.45;;;;;;;;;;5025988;28;20449;-81
2022/10/16 03:19:03;;;;;;;6.18;2.58;;;;;;;;;;5028859;28;20481;-81
2022/10/16 03:21:29;;;;;;;8.48;2.58;;;;;;;;;;5023614;28;20138;-81
2022/10/16 03:23:55;;;;;;;3.65;2.33;;;;;;;;;;5029975;28;20096;-81
2022/10/16 03:26:21;;;;;;;6.15;2.60;;;;;;;;;;5031249;28;20132;-81
2022/10/16 03:28:47;;;;;;;6.82;2.58;;;;;;;;;;5030319;28;20533;-81
2022/10/16 03:31:13;;;;;;;7.93;3.10;;;;;;;;;;5029608;28;20118;-81
2022/10/16 03:33:39;;;;;;;3.50;3.13;;;;;;;;;;5023928;28;20091;-81
2022/10/16 03:36:06;;;;;;;4.13;2.50;;;;;;;;;;5030702;28;20396;-81
2022/10/16 03:38:32;;;;;;;5.38;2.20;;;;;;;;;;5025697;28;20071;-81
2022/10/16 03:40:58;;;;;;;5.80;2.53;;;;;;;;;;5032396;28;20045;-81
2022/10/16 03:43:27;;;;;;;4.55;2.50;;;;;;;;;;5023506;28;20508;-82
2022/10/16 03:45:53;;;;;;;4.60;2.50;;;;;;;;;;5027867;28;20060;-81
2022/10/16 03:48:19;;;;;;;5.63;2.67;;;;;;;;;;5021724;28;20464;-81
2022/10/16 03:50:47;;;;;;;4.82;2.17;;;;;;;;;;5026671;28;20053;-81
2022/10/16 03:53:14;;;;;;;9.48;3.08;;;;;;;;;;5020695;28;20120;-81
2022/10/16 03:55:41;;;;;;;7.40;2.40;;;;;;;;;;5026208;28;20049;-81
2022/10/16 03:58:07;;;;;;;5.97;2.20;;;;;;;;;;5029461;28;20149;-81
2022/10/16 04:00:34;;;;;;;7.20;2.65;;;;;;;;;;5027440;28;20182;-80
2022/10/16 04:03:00;;;;;;;7.57;2.67;;;;;;;;;;5031618;28;20046;-81
2022/10/16 04:05:26;;;;;;;5.97;2.47;;;;;;;;;;5027064;28;20041;-81
2022/10/16 04:07:52;;;;;;;6.20;2.35;;;;;;;;;;5031704;28;20049;-81
2022/10/16 04:10:19;;;;;;;5.90;2.45;;;;;;;;;;5025495;28;20520;-80
2022/10/16 04:12:45;;;;;;;2.63;2.00;;;;;;;;;;5026837;28;20045;-81
2022/10/16 04:15:11;;;;;;;5.03;2.58;;;;;;;;;;5025463;28;20057;-80
2022/10/16 04:17:37;;;;;;;7.82;3.25;;;;;;;;;;5030081;28;20088;-80
2022/10/16 04:20:03;;;;;;;5.07;2.40;;;;;;;;;;5029456;28;20098;-81
2022/10/16 04:22:29;;;;;;;6.28;2.30;;;;;;;;;;5026176;28;20442;-81
2022/10/16 04:25:04;;;;;;;5.00;2.38;;;;;;;;;;5029527;28;20084;-80
2022/10/16 04:27:31;;;;;;;3.55;2.40;;;;;;;;;;5043597;28;20204;-81
2022/10/16 04:29:57;;;;;;;5.03;2.90;;;;;;;;;;5031152;28;20042;-80
2022/10/16 04:32:23;;;;;;;6.50;2.45;;;;;;;;;;5028622;28;20132;-81
2022/10/16 04:34:49;;;;;;;5.07;2.72;;;;;;;;;;5027585;28;20417;-80
2022/10/16 04:37:15;;;;;;;5.03;2.35;;;;;;;;;;5025194;28;20049;-81
2022/10/16 04:39:41;;;;;;;7.15;2.30;;;;;;;;;;5030113;28;20040;-81
2022/10/16 04:42:08;;;;;;;4.78;2.30;;;;;;;;;;5021339;28;20408;-83
2022/10/16 04:44:34;;;;;;;6.90;2.60;;;;;;;;;;5021622;28;20492;-81
2022/10/16 04:47:00;;;;;;;4.80;2.83;;;;;;;;;;5024463;28;20537;-81
2022/10/16 04:49:26;;;;;;;8.02;2.25;;;;;;;;;;5028092;28;20076;-81
2022/10/16 04:51:52;;;;;;;6.53;2.60;;;;;;;;;;5024972;28;20103;-81
2022/10/16 04:54:18;;;;;;;5.95;2.58;;;;;;;;;;5017864;28;20080;-81
2022/10/16 04:56:47;;;;;;;9.30;2.70;;;;;;;;;;5026743;28;20108;-80
2022/10/16 04:59:13;;;;;;;6.03;2.53;;;;;;;;;;5027752;28;20505;-81
2022/10/16 05:01:43;;;;;;;5.28;2.63;;;;;;;;;;5030493;28;20457;-82
2022/10/16 05:04:09;;;;;;;4.88;2.22;;;;;;;;;;5027277;28;20045;-80
2022/10/16 05:06:35;;;;;;;5.63;2.30;;;;;;;;;;5020700;28;20045;-81
2022/10/16 05:09:01;;;;;;;7.18;2.40;;;;;;;;;;5023748;28;20038;-85
2022/10/16 05:11:27;;;;;;;7.13;2.45;;;;;;;;;;5027696;28;20099;-82
2022/10/16 05:13:53;;;;;;;6.43;2.55;;;;;;;;;;5030610;28;20121;-82
2022/10/16 05:16:19;;;;;;;6.18;2.50;;;;;;;;;;5021495;28;20128;-82
2022/10/16 05:18:45;;;;;;;4.03;2.17;;;;;;;;;;5031709;28;20046;-81
2022/10/16 05:21:11;;;;;;;3.05;2.10;;;;;;;;;;5024951;28;20042;-82
2022/10/16 05:23:37;;;;;;;4.75;2.35;;;;;;;;;;5027473;28;20084;-81
2022/10/16 05:26:03;;;;;;;5.20;2.55;;;;;;;;;;5023823;28;20112;-81
2022/10/16 05:28:30;;;;;;;7.40;2.65;;;;;;;;;;5024289;28;20053;-82
2022/10/16 05:30:56;;;;;;;6.93;2.72;;;;;;;;;;5025206;28;20489;-81
2022/10/16 05:33:23;;;;;;;6.10;2.97;;;;;;;;;;5030568;28;20045;-81
2022/10/16 05:35:49;;;;;;;7.50;2.83;;;;;;;;;;5028440;28;20068;-82
2022/10/16 05:38:16;;;;;;;4.53;3.10;;;;;;;;;;5025330;28;20061;-82
2022/10/16 05:40:42;;;;;;;5.78;3.08;;;;;;;;;;5022435;28;20041;-82
2022/10/16 05:43:08;;;;;;;4.07;3.17;;;;;;;;;;5026585;28;20140;-82
2022/10/16 05:45:34;;;;;;;6.68;3.13;;;;;;;;;;5029138;28;20045;-82
2022/10/16 05:48:00;;;;;;;5.72;3.17;;;;;;;;;;5030161;28;20060;-81
2022/10/16 05:50:27;;;;;;;6.55;3.08;;;;;;;;;;5024722;28;20065;-81
2022/10/16 05:52:53;;;;;;;6.63;3.22;;;;;;;;;;5026338;28;20041;-81
2022/10/16 05:55:19;;;;;;;5.80;2.97;;;;;;;;;;5028115;28;20037;-80
2022/10/16 05:57:45;;;;;;;6.57;2.80;;;;;;;;;;5022975;28;20563;-82
2022/10/16 06:00:11;;;;;;;7.88;2.95;;;;;;;;;;5014372;28;20049;-81
2022/10/16 06:02:37;;;;;;;8.07;3.00;;;;;;;;;;5026311;28;20075;-83
2022/10/16 06:05:03;;;;;;;5.30;2.80;;;;;;;;;;5028416;28;20034;-81
2022/10/16 06:07:32;;;;;;;7.68;3.03;;;;;;;;;;5027864;28;20503;-82
2022/10/16 06:09:58;;;;;;;6.93;3.08;;;;;;;;;;5026316;28;20100;-81
2022/10/16 06:12:24;;;;;;;8.60;3.05;;;;;;;;;;5022188;28;20069;-83
2022/10/16 06:14:50;;;;;;;5.65;3.20;;;;;;;;;;5027430;28;20041;-81
2022/10/16 06:17:16;;;;;;;6.78;3.13;;;;;;;;;;5024142;28;20080;-82
2022/10/16 06:19:42;;;;;;;4.55;3.20;;;;;;;;;;5025711;28;20117;-81
2022/10/16 06:22:08;;;;;;;4.45;3.35;;;;;;;;;;5023323;28;20057;-81
2022/10/16 06:24:34;;;;;;;9.73;3.83;;;;;;;;;;5026489;28;20048;-82
2022/10/16 06:27:00;;;;;;;5.45;3.20;;;;;;;;;;5023819;28;20400;-81
2022/10/16 06:29:26;;;;;;;9.25;3.50;;;;;;;;;;5025871;28;20049;-81
2022/10/16 06:31:52;;;;;;;9.88;3.80;;;;;;;;;;5024895;28;20050;-81
2022/10/16 06:34:18;;;;;;;5.15;3.60;;;;;;;;;;5025349;28;20046;-81
2022/10/16 06:36:44;;;;;;;7.78;3.58;;;;;;;;;;5027116;28;20049;-81
2022/10/16 06:39:10;;;;;;;6.47;3.33;;;;;;;;;;5023811;28;20481;-82
2022/10/16 06:41:37;;;;;;;8.10;3.15;;;;;;;;;;5025707;28;20053;-82
2022/10/16 06:44:06;;;;;;;8.00;3.50;;;;;;;;;;5025087;28;20033;-82
2022/10/16 06:46:32;;;;;;;8.75;3.20;;;;;;;;;;5027065;28;20104;-82
2022/10/16 06:48:58;;;;;;;6.80;2.72;;;;;;;;;;5025959;28;20440;-81
2022/10/16 06:51:25;;;;;;;8.80;2.90;;;;;;;;;;5028870;28;20073;-85
2022/10/16 06:53:52;;;;;;;5.75;2.60;;;;;;;;;;5027618;28;20583;-81
2022/10/16 06:56:19;;;;;;;7.93;2.78;;;;;;;;;;5030110;28;20053;-81
2022/10/16 06:58:45;;;;;;;7.97;2.88;;;;;;;;;;5025689;28;20058;-81
2022/10/16 07:01:12;;;;;;;9.18;3.00;;;;;;;;;;5029246;28;20045;-82
2022/10/16 07:03:38;;;;;;;7.28;2.58;;;;;;;;;;5029352;28;20041;-82
2022/10/16 07:06:05;;;;;;;5.47;2.50;;;;;;;;;;5031988;28;20480;-83
2022/10/16 07:08:32;;;;;;;7.80;3.08;;;;;;;;;;5026736;28;20049;-82
2022/10/16 07:10:59;;;;;;;8.98;2.70;;;;;;;;;;5026946;28;20069;-81
2022/10/16 07:13:25;;;;;;;4.95;2.92;;;;;;;;;;5027095;28;20055;-82
2022/10/16 07:15:51;;;;;;;7.80;3.30;;;;;;;;;;5028863;28;20529;-81
2022/10/16 07:18:18;;;;;;;6.32;3.05;;;;;;;;;;5028201;28;20045;-82
2022/10/16 07:20:44;;;;;;;5.72;2.78;;;;;;;;;;5028649;28;20045;-82
2022/10/16 07:23:10;;;;;;;5.90;2.75;;;;;;;;;;5027931;28;20099;-81
2022/10/16 07:25:36;;;;;;;5.95;2.60;;;;;;;;;;5030310;28;20172;-82
2022/10/16 07:28:02;;;;;;;7.20;2.88;;;;;;;;;;5027912;28;20469;-82
2022/10/16 07:30:31;;;;;;;8.23;3.20;;;;;;;;;;5027868;28;20559;-82
2022/10/16 07:32:57;;;;;;;7.97;3.42;;;;;;;;;;5030993;28;20464;-82
2022/10/16 07:35:23;;;;;;;6.03;2.60;;;;;;;;;;5019948;28;20069;-82
2022/10/16 07:37:49;;;;;;;9.98;2.90;;;;;;;;;;5023161;28;20073;-82
2022/10/16 07:40:15;;;;;;;5.80;2.65;;;;;;;;;;5026407;28;20128;-82
2022/10/16 07:42:50;;;;;;;7.45;2.78;;;;;;;;;;5025252;28;20564;-81
2022/10/16 07:45:16;;;;;;;7.82;3.33;;;;;;;;;;5025702;28;20523;-82
2022/10/16 07:47:42;;;;;;;7.57;3.58;;;;;;;;;;5025227;28;20069;-82
2022/10/16 07:50:08;;;;;;;11.52;6.97;;;;;;;;;;5027586;28;20048;-82
2022/10/16 07:52:34;;;;;;;5.78;3.00;;;;;;;;;;5021234;28;20467;-82
2022/10/16 07:55:00;;;;;;;5.90;2.70;;;;;;;;;;5029315;28;20132;-82
2022/10/16 07:57:26;;;;;;;5.13;3.45;;;;;;;;;;5025465;28;20060;-82
2022/10/16 07:59:52;;;;;;;6.90;2.95;;;;;;;;;;5021089;28;20128;-82
2022/10/16 08:02:18;;;;;;;8.48;2.83;;;;;;;;;;5022409;28;20037;-82
2022/10/16 08:04:47;;;;;;;8.75;3.20;;;;;;;;;;5028877;28;20037;-82
2022/10/16 08:07:13;;;;;;;11.60;3.30;;;;;;;;;;5024424;28;20049;-81
2022/10/16 08:09:39;;;;;;;11.00;3.05;;;;;;;;;;5027562;28;20129;-82
2022/10/16 08:12:10;;;;;;;11.77;3.47;;;;;;;;;;5029654;28;20128;-82
2022/10/16 08:14:36;;;;;;;13.70;3.80;;;;;;;;;;5029229;28;20466;-83
2022/10/16 08:17:03;;;;;;;14.57;3.83;;;;;;;;;;5030303;28;20046;-82
2022/10/16 08:19:31;;;;;;;13.27;3.55;;;;;;;;;;5030573;28;20041;-85
2022/10/16 08:21:57;;;;;;;11.60;3.55;;;;;;;;;;5026838;28;20049;-84
2022/10/16 08:24:23;;;;;;;16.48;4.05;;;;;;;;;;5020149;28;20041;-84
2022/10/16 08:26:49;;;;;;;14.02;4.30;;;;;;;;;;5026090;28;20356;-82
2022/10/16 08:29:15;;;;;;;14.68;4.00;;;;;;;;;;5021546;28;20041;-83
2022/10/16 08:31:41;;;;;;;13.15;3.22;;;;;;;;;;5025331;28;20405;-83
2022/10/16 08:34:07;;;;;;;12.25;3.70;;;;;;;;;;5030197;28;20069;-82
2022/10/16 08:36:33;;;;;;;10.20;3.13;;;;;;;;;;5024230;28;20166;-81
2022/10/16 08:38:59;;;;;;;8.45;3.00;;;;;;;;;;5030456;28;20038;-83
2022/10/16 08:41:28;;;;;;;12.43;3.30;;;;;;;;;;5026909;28;20049;-82
2022/10/16 08:43:54;;;;;;;6.82;2.92;;;;;;;;;;5026642;28;20045;-83
2022/10/16 08:46:40;;;;;;;8.18;3.03;;;;;;;;;;5025015;28;20060;-81
2022/10/16 08:49:19;;;;;;;8.45;2.75;;;;;;;;;;5026285;28;20045;-82
2022/10/16 08:51:46;;;;;;;9.63;3.00;;;;;;;;;;5024773;28;20042;-82
2022/10/16 08:54:19;;;;;;;10.65;3.05;;;;;;;;;;5020609;28;20117;-82
2022/10/16 08:56:45;;;;;;;6.88;2.88;;;;;;;;;;5020771;28;20494;-83
2022/10/16 08:59:12;;;;;;;10.50;3.28;;;;;;;;;;5021872;28;20042;-84
2022/10/16 09:01:42;;;;;;;8.82;2.85;;;;;;;;;;5028045;28;20124;-80
2022/10/16 09:04:08;;;;;;;12.02;3.42;;;;;;;;;;5024182;28;20045;-84
2022/10/16 09:06:42;;;;;;;11.77;3.10;;;;;;;;;;5025283;28;20054;-82
2022/10/16 09:09:11;;;;;;;;;;;;;;;;;;5023571;28;20090;-82
2022/10/16 09:11:55;;;;;;;16.17;3.92;;;;;;;;;;5017161;28;19936;-83
2022/10/16 09:14:40;;;;;;;17.17;4.28;;;;;;;;;;5041415;28;20049;-83
2022/10/16 09:17:15;;;;;;;17.95;4.50;;;;;;;;;;5024039;28;20184;-83
2022/10/16 09:19:46;;;;;;;16.27;4.45;;;;;;;;;;5030619;28;20091;-78
2022/10/16 09:22:14;;;;;;;21.63;4.57;;;;;;;;;;5007200;28;20408;-82
2022/10/16 09:24:40;;;;;;;17.80;3.95;;;;;;;;;;5024437;28;20045;-83
2022/10/16 09:27:14;;;;;;;17.13;4.22;;;;;;;;;;5025915;28;20136;-82
2022/10/16 09:29:43;;;;;;;14.13;4.18;;;;;;;;;;5020003;28;20133;-81
2022/10/16 09:32:24;;;;;;;13.10;3.63;;;;;;;;;;5020166;28;20426;-81
2022/10/16 09:34:53;;;;;;;16.80;4.50;;;;;;;;;;5022904;28;20052;-82
2022/10/16 09:37:20;;;;;;;11.38;3.20;;;;;;;;;;5016318;28;20481;-81
2022/10/16 09:39:48;;;;;;;13.30;3.40;;;;;;;;;;5020986;28;20037;-82
2022/10/16 09:42:18;;;;;;;10.77;3.15;;;;;;;;;;5025778;28;20099;-82
2022/10/16 09:44:47;;;;;;;11.40;3.20;;;;;;;;;;5024651;28;20095;-82
2022/10/16 09:47:18;;;;;;;12.75;3.30;;;;;;;;;;5027308;28;20049;-82
2022/10/16 09:50:04;;;;;;;15.07;3.42;;;;;;;;;;5022857;28;20446;-82
2022/10/16 09:52:30;;;;;;;12.20;2.92;;;;;;;;;;5021589;28;20045;-82
2022/10/16 09:55:00;;;;;;;11.73;3.28;;;;;;;;;;5028303;28;20096;-81
2022/10/16 09:57:26;;;;;;;9.23;2.88;;;;;;;;;;5024731;28;20061;-82
2022/10/16 09:59:54;;;;;;;13.23;3.75;;;;;;;;;;5027722;28;20096;-82
2022/10/16 10:02:24;;;;;;;14.52;3.60;;;;;;;;;;5019920;28;20050;-81
2022/10/16 10:04:54;;;;;;;13.70;3.45;;;;;;;;;;5025995;28;20041;-82
2022/10/16 10:07:27;;;;;;;15.32;3.33;;;;;;;;;;5024070;28;20073;-82
2022/10/16 10:09:55;;;;;;;14.13;3.38;;;;;;;;;;5021619;28;20401;-83
2022/10/16 10:12:25;;;;;;;18.42;3.95;;;;;;;;;;5020726;28;20057;-83
2022/10/16 10:14:53;;;;;;;12.85;3.70;;;;;;;;;;5027208;28;20171;-82
2022/10/16 10:17:23;;;;;;;12.00;3.47;;;;;;;;;;5025044;28;20446;-82
2022/10/16 10:20:02;;;;;;;15.73;4.47;;;;;;;;;;5026057;28;20123;-81
2022/10/16 10:22:33;;;;;;;15.98;3.50;;;;;;;;;;5025266;28;20486;-82
2022/10/16 10:25:13;;;;;;;12.20;3.50;;;;;;;;;;5022667;28;20046;-82
2022/10/16 10:27:58;;;;;;;13.23;3.40;;;;;;;;;;5025972;28;20047;-82
2022/10/16 10:30:35;;;;;;;14.45;3.70;;;;;;;;;;5030385;28;20077;-83
2022/10/16 10:33:15;;;;;;;13.82;3.67;;;;;;;;;;5029596;28;20401;-83
2022/10/16 10:35:53;;;;;;;15.40;3.95;;;;;;;;;;5029538;28;20102;-82
2022/10/16 10:38:18;;;;;;;14.15;3.45;;;;;;;;;;5027187;28;20041;-82
2022/10/16 10:40:57;;;;;;;13.02;3.47;;;;;;;;;;5033751;28;20033;-82
2022/10/16 10:43:31;;;;;;;15.38;3.45;;;;;;;;;;5029012;28;20042;-83
2022/10/16 10:46:05;;;;;;;14.90;3.25;;;;;;;;;;5030844;28;20111;-82
2022/10/16 10:48:51;;;;;;;13.80;3.50;;;;;;;;;;5021306;28;20370;-82
2022/10/16 10:51:25;;;;;;;12.55;3.17;;;;;;;;;;5022283;28;20038;-82
2022/10/16 10:53:57;;;;;;;12.90;3.25;;;;;;;;;;5030879;28;20048;-82
2022/10/16 10:56:41;;;;;;;12.52;3.55;;;;;;;;;;5032165;28;20037;-82
2022/10/16 10:59:06;;;;;;;;;;;;;;;;;;5028422;28;20076;-82
2022/10/16 11:01:39;;;;;;;13.23;3.35;;;;;;;;;;5026630;28;20395;-82
2022/10/16 11:04:30;;;;;;;9.52;3.03;;;;;;;;;;5030939;28;20081;-82
2022/10/16 11:06:59;;;;;;;12.93;3.33;;;;;;;;;;5029919;28;20091;-81
2022/10/16 11:09:28;;;;;;;9.45;2.78;;;;;;;;;;5026780;28;20124;-82
2022/10/16 11:12:05;;;;;;;11.38;3.13;;;;;;;;;;5027000;28;20129;-82
2022/10/16 11:14:52;;;;;;;11.20;3.20;;;;;;;;;;5026644;28;20128;-82
2022/10/16 11:17:26;;;;;;;11.57;3.22;;;;;;;;;;5008592;28;20397;-82
2022/10/16 11:19:55;;;;;;;11.55;3.20;;;;;;;;;;5027011;28;20057;-81
2022/10/16 11:22:25;;;;;;;10.80;2.90;;;;;;;;;;5029885;28;20041;-80
2022/10/16 11:25:05;;;;;;;15.68;3.28;;;;;;;;;;5028262;28;20083;-84
2022/10/16 11:27:42;;;;;;;8.25;2.80;;;;;;;;;;5021613;28;20056;-82
2022/10/16 11:30:17;;;;;;;12.43;3.33;;;;;;;;;;5023510;28;22063;-80
2022/10/16 11:33:03;;;;;;;12.10;3.30;;;;;;;;;;5017731;28;20045;-82
2022/10/16 11:35:37;;;;;;;14.82;3.13;;;;;;;;;;5022344;28;20052;-82
2022/10/16 11:38:07;;;;;;;12.18;2.90;;;;;;;;;;5026998;28;20409;-82
2022/10/16 11:40:35;;;;;;;16.70;4.07;;;;;;;;;;5024687;28;20132;-82
2022/10/16 11:43:14;;;;;;;9.15;2.88;;;;;;;;;;5024144;28;20135;-82
2022/10/16 11:45:47;;;;;;;16.55;3.00;;;;;;;;;;5029207;28;20132;-82
2022/10/16 11:48:24;;;;;;;11.40;3.15;;;;;;;;;;5026404;28;20037;-82
2022/10/16 11:50:53;;;;;;;12.55;3.05;;;;;;;;;;5028536;28;20037;-82
2022/10/16 11:53:23;;;;;;;7.85;2.55;;;;;;;;;;5017653;28;20481;-81
2022/10/16 11:55:49;;;;;;;9.65;2.55;;;;;;;;;;5022352;28;20041;-81
2022/10/16 11:58:26;;;;;;;8.75;2.70;;;;;;;;;;5027556;28;20412;-82
2022/10/16 12:00:55;;;;;;;12.85;3.15;;;;;;;;;;5022381;28;20058;-82
2022/10/16 12:03:23;;;;;;;11.02;3.33;;;;;;;;;;5023532;28;20520;-82
2022/10/16 12:06:14;;;;;;;9.32;2.80;;;;;;;;;;5025741;28;20053;-81
2022/10/16 12:08:40;;;;;;;11.02;2.83;;;;;;;;;;5015348;28;20042;-83
2022/10/16 12:11:29;;;;;;;10.05;3.25;;;;;;;;;;5023431;28;20458;-82
2022/10/16 12:14:19;;;;;;;8.52;3.17;;;;;;;;;;5023840;28;20064;-81
2022/10/16 12:16:56;;;;;;;11.05;2.83;;;;;;;;;;5027361;28;20057;-82
2022/10/16 12:19:23;;;;;;;7.72;2.88;;;;;;;;;;5018473;28;20041;-82
2022/10/16 12:21:50;;;;;;;8.55;2.60;;;;;;;;;;5026720;28;20049;-81
2022/10/16 12:24:35;;;;;;;10.15;2.92;;;;;;;;;;5022237;28;20049;-82
2022/10/16 12:27:02;;;;;;;10.02;2.78;;;;;;;;;;5019143;28;20048;-81
2022/10/16 12:29:28;;;;;;;11.90;2.83;;;;;;;;;;5017586;28;20042;-81
2022/10/16 12:31:54;;;;;;;7.60;2.80;;;;;;;;;;5024865;28;20076;-80
2022/10/16 12:34:22;;;;;;;10.80;3.33;;;;;;;;;;5025527;28;20061;-82
2022/10/16 12:36:49;;;;;;;10.88;2.55;;;;;;;;;;5027748;28;20056;-79
2022/10/16 12:39:21;;;;;;;11.07;3.13;;;;;;;;;;5027777;28;20037;-83
2022/10/16 12:41:50;;;;;;;11.48;3.20;;;;;;;;;;5005687;28;20052;-82
2022/10/16 12:44:26;;;;;;;9.18;3.28;;;;;;;;;;5023423;28;20492;-81
2022/10/16 12:46:52;;;;;;;6.28;2.63;;;;;;;;;;5025683;28;20139;-81
2022/10/16 12:49:24;;;;;;;8.63;2.67;;;;;;;;;;5025100;28;20044;-81
2022/10/16 12:51:53;;;;;;;9.80;3.03;;;;;;;;;;5023597;28;20099;-80
2022/10/16 12:54:20;;;;;;;11.23;3.13;;;;;;;;;;5026215;28;20124;-81
2022/10/16 12:57:03;;;;;;;11.07;2.72;;;;;;;;;;5026339;28;20761;-81
2022/10/16 12:59:38;;;;;;;11.43;3.25;;;;;;;;;;5027621;28;20445;-81
2022/10/16 13:02:27;;;;;;;8.73;3.03;;;;;;;;;;5024138;28;20053;-81
2022/10/16 13:04:52;;;;;;;11.63;2.92;;;;;;;;;;5022415;28;20059;-81
2022/10/16 13:07:28;;;;;;;9.73;2.65;;;;;;;;;;5031401;28;20053;-81
2022/10/16 13:10:11;;;;;;;10.15;2.92;;;;;;;;;;5022429;28;20045;-82
2022/10/16 13:12:47;;;;;;;12.05;2.88;;;;;;;;;;5027393;28;20070;-82
2022/10/16 13:15:26;;;;;;;7.50;2.55;;;;;;;;;;5022737;28;20100;-81
2022/10/16 13:18:04;;;;;;;9.50;2.58;;;;;;;;;;5025451;28;20060;-81
2022/10/16 13:20:32;;;;;;;10.35;3.13;;;;;;;;;;5028138;28;20046;-81
2022/10/16 13:23:04;;;;;;;6.68;2.55;;;;;;;;;;5020623;28;20461;-81
2022/10/16 13:25:49;;;;;;;7.85;2.60;;;;;;;;;;5022713;28;20111;-81
2022/10/16 13:28:16;;;;;;;10.43;3.00;;;;;;;;;;5023738;28;20037;-81
2022/10/16 13:30:53;;;;;;;9.48;2.80;;;;;;;;;;5028787;28;20041;-81
2022/10/16 13:33:33;;;;;;;8.07;2.67;;;;;;;;;;5028134;28;20049;-81
2022/10/16 13:35:59;;;;;;;12.73;3.10;;;;;;;;;;5028066;28;20049;-81
2022/10/16 13:38:32;;;;;;;10.38;2.78;;;;;;;;;;5028125;28;20061;-82
2022/10/16 13:40:58;;;;;;;9.95;3.20;;;;;;;;;;5021989;28;20116;-81
2022/10/16 13:43:35;;;;;;;7.53;2.55;;;;;;;;;;5020627;28;20056;-81
2022/10/16 13:46:03;;;;;;;13.98;2.72;;;;;;;;;;5027145;28;20045;-83
2022/10/16 13:48:30;;;;;;;9.45;2.47;;;;;;;;;;5029922;28;20056;-81
2022/10/16 13:51:13;;;;;;;8.38;2.35;;;;;;;;;;5013457;28;20045;-81
2022/10/16 13:53:40;;;;;;;8.65;2.78;;;;;;;;;;5030812;28;20056;-81
2022/10/16 13:56:08;;;;;;;5.88;2.35;;;;;;;;;;5030265;28;20101;-81
2022/10/16 13:58:34;;;;;;;11.35;2.95;;;;;;;;;;5020104;28;20064;-82
2022/10/16 14:01:01;;;;;;;7.82;2.50;;;;;;;;;;5024028;28;20053;-81
2022/10/16 14:03:28;;;;;;;8.38;2.30;;;;;;;;;;5024506;28;20057;-82
2022/10/16 14:05:56;;;;;;;6.10;2.70;;;;;;;;;;5026448;28;20099;-81
2022/10/16 14:08:24;;;;;;;5.88;2.42;;;;;;;;;;5026874;28;20053;-82
2022/10/16 14:10:51;;;;;;;6.88;2.78;;;;;;;;;;5033271;28;20045;-81
2022/10/16 14:13:19;;;;;;;6.22;2.58;;;;;;;;;;5020679;28;20073;-81
2022/10/16 14:15:50;;;;;;;8.13;2.15;;;;;;;;;;5031802;28;20129;-82
2022/10/16 14:18:21;;;;;;;6.22;2.30;;;;;;;;;;5029732;28;20540;-81
2022/10/16 14:20:48;;;;;;;7.53;2.80;;;;;;;;;;5023812;28;20041;-81
2022/10/16 14:23:29;;;;;;;9.98;3.22;;;;;;;;;;5028826;28;20045;-82
2022/10/16 14:26:06;;;;;;;10.38;2.65;;;;;;;;;;5027786;28;20049;-81
2022/10/16 14:28:32;;;;;;;6.13;2.40;;;;;;;;;;5029573;28;20042;-82
2022/10/16 14:30:59;;;;;;;6.05;2.30;;;;;;;;;;5029554;28;20049;-82
2022/10/16 14:33:33;;;;;;;6.38;2.38;;;;;;;;;;5027807;28;20128;-81
2022/10/16 14:36:01;;;;;;;7.50;2.30;;;;;;;;;;5019952;28;20045;-82
2022/10/16 14:38:27;;;;;;;5.55;2.45;;;;;;;;;;5017684;28;20049;-83
2022/10/16 14:40:53;;;;;;;7.63;2.83;;;;;;;;;;5026570;28;20381;-82
2022/10/16 14:43:23;;;;;;;5.93;2.15;;;;;;;;;;5029241;28;20045;-82
2022/10/16 14:45:53;;;;;;;10.88;3.00;;;;;;;;;;5026295;28;20048;-82
2022/10/16 14:48:20;;;;;;;9.82;2.70;;;;;;;;;;5032049;28;20046;-79
2022/10/16 14:50:46;;;;;;;7.00;2.40;;;;;;;;;;5024600;28;20044;-84
2022/10/16 14:53:15;;;;;;;7.05;2.33;;;;;;;;;;5021832;28;20481;-82